sensor_id;sensor_type;location;lat;lon;timestamp;pressure;altitude;pressure_sealevel;temperature;humidity
15884;BME280;8040;50.254;10.960;2022-10-04T00:02:36;99051.78;;;9.27;80.76
15884;BME280;8040;50.254;10.960;2022-10-04T00:05:22;99044.75;;;9.26;80.54
15884;BME280;8040;50.254;10.960;2022-10-04T00:08:20;99042.03;;;9.21;80.73
15884;BME280;8040;50.254;10.960;2022-10-04T00:11:06;99041.25;;;9.20;81.13
15884;BME280;8040;50.254;10.960;2022-10-04T00:13:56;99034.72;;;9.16;80.83
15884;BME280;8040;50.254;10.960;2022-10-04T00:16:40;99028.50;;;9.16;80.38
15884;BME280;8040;50.254;10.960;2022-10-04T00:22:40;99025.53;;;9.12;80.89
15884;BME280;8040;50.254;10.960;2022-10-04T00:25:44;99021.19;;;9.06;80.98
15884;BME280;8040;50.254;10.960;2022-10-04T00:28:41;99040.16;;;9.11;80.87
15884;BME280;8040;50.254;10.960;2022-10-04T00:31:25;99034.19;;;9.09;80.68
15884;BME280;8040;50.254;10.960;2022-10-04T00:36:54;99026.34;;;9.03;80.57
15884;BME280;8040;50.254;10.960;2022-10-04T00:39:40;99033.66;;;9.02;79.88
15884;BME280;8040;50.254;10.960;2022-10-04T00:45:21;99026.63;;;8.96;80.04
15884;BME280;8040;50.254;10.960;2022-10-04T00:51:02;99018.50;;;8.91;80.45
15884;BME280;8040;50.254;10.960;2022-10-04T00:54:02;99015.53;;;8.88;79.74
15884;BME280;8040;50.254;10.960;2022-10-04T00:56:51;99025.81;;;8.81;80.05
15884;BME280;8040;50.254;10.960;2022-10-04T00:59:40;99016.03;;;8.80;79.96
15884;BME280;8040;50.254;10.960;2022-10-04T01:02:27;99025.25;;;8.84;80.42
15884;BME280;8040;50.254;10.960;2022-10-04T01:05:14;99018.22;;;8.78;80.45
15884;BME280;8040;50.254;10.960;2022-10-04T01:08:04;99019.56;;;8.75;79.69
15884;BME280;8040;50.254;10.960;2022-10-04T01:13:39;99029.84;;;8.73;79.92
15884;BME280;8040;50.254;10.960;2022-10-04T01:16:26;99030.09;;;8.67;79.71
15884;BME280;8040;50.254;10.960;2022-10-04T01:22:10;99033.06;;;8.60;79.71
15884;BME280;8040;50.254;10.960;2022-10-04T01:24:55;99037.13;;;8.58;79.91
15884;BME280;8040;50.254;10.960;2022-10-04T01:27:41;99023.34;;;8.59;79.67
15884;BME280;8040;50.254;10.960;2022-10-04T01:30:25;99021.41;;;8.55;79.90
15884;BME280;8040;50.254;10.960;2022-10-04T01:33:10;99010.31;;;8.51;78.97
15884;BME280;8040;50.254;10.960;2022-10-04T01:35:54;99008.97;;;8.44;79.22
15884;BME280;8040;50.254;10.960;2022-10-04T01:38:39;99007.63;;;8.41;79.48
15884;BME280;8040;50.254;10.960;2022-10-04T01:41:24;99005.69;;;8.42;79.92
15884;BME280;8040;50.254;10.960;2022-10-04T01:44:48;99004.09;;;8.41;79.96
15884;BME280;8040;50.254;10.960;2022-10-04T01:47:17;99013.28;;;8.40;80.02
15884;BME280;8040;50.254;10.960;2022-10-04T01:50:06;99013.78;;;8.37;79.38
15884;BME280;8040;50.254;10.960;2022-10-04T01:52:53;99003.53;;;8.34;79.81
15884;BME280;8040;50.254;10.960;2022-10-04T01:55:40;98983.81;;;8.38;80.10
15884;BME280;8040;50.254;10.960;2022-10-04T01:58:27;98982.19;;;8.37;79.85
15884;BME280;8040;50.254;10.960;2022-10-04T02:01:20;98991.63;;;8.35;80.17
15884;BME280;8040;50.254;10.960;2022-10-04T02:04:49;98979.75;;;8.36;80.46
15884;BME280;8040;50.254;10.960;2022-10-04T02:07:14;98978.66;;;8.32;80.33
15884;BME280;8040;50.254;10.960;2022-10-04T02:09:59;98979.47;;;8.32;80.24
15884;BME280;8040;50.254;10.960;2022-10-04T02:12:46;98988.41;;;8.33;80.46
15884;BME280;8040;50.254;10.960;2022-10-04T02:15:30;98994.88;;;8.32;80.41
15884;BME280;8040;50.254;10.960;2022-10-04T02:18:16;98992.19;;;8.42;80.61
15884;BME280;8040;50.254;10.960;2022-10-04T02:21:00;98977.59;;;8.43;79.46
15884;BME280;8040;50.254;10.960;2022-10-04T02:23:47;98964.91;;;8.43;80.62
15884;BME280;8040;50.254;10.960;2022-10-04T02:26:31;98975.16;;;8.46;80.59
15884;BME280;8040;50.254;10.960;2022-10-04T02:29:16;98973.28;;;8.47;80.81
15884;BME280;8040;50.254;10.960;2022-10-04T02:32:02;98980.88;;;8.50;79.92
15884;BME280;8040;50.254;10.960;2022-10-04T02:35:05;98986.53;;;8.48;80.46
15884;BME280;8040;50.254;10.960;2022-10-04T02:37:53;98954.34;;;8.32;80.51
15884;BME280;8040;50.254;10.960;2022-10-04T02:40:49;98982.50;;;8.51;80.90
15884;BME280;8040;50.254;10.960;2022-10-04T02:43:38;98979.78;;;8.56;81.07
15884;BME280;8040;50.254;10.960;2022-10-04T02:46:39;98980.84;;;8.55;81.16
15884;BME280;8040;50.254;10.960;2022-10-04T02:49:32;98978.16;;;8.55;80.73
15884;BME280;8040;50.254;10.960;2022-10-04T02:52:25;98971.94;;;8.54;81.42
15884;BME280;8040;50.254;10.960;2022-10-04T02:55:13;98973.31;;;8.57;81.41
15884;BME280;8040;50.254;10.960;2022-10-04T02:58:01;98979.78;;;8.61;81.76
15884;BME280;8040;50.254;10.960;2022-10-04T03:00:46;98987.91;;;8.66;81.60
15884;BME280;8040;50.254;10.960;2022-10-04T03:03:35;98978.69;;;8.67;81.53
15884;BME280;8040;50.254;10.960;2022-10-04T03:06:20;98989.25;;;8.68;81.95
15884;BME280;8040;50.254;10.960;2022-10-04T03:09:07;98991.13;;;8.68;82.24
15884;BME280;8040;50.254;10.960;2022-10-04T03:11:51;98985.47;;;8.74;82.39
15884;BME280;8040;50.254;10.960;2022-10-04T03:14:36;98976.53;;;8.74;82.00
15884;BME280;8040;50.254;10.960;2022-10-04T03:17:20;98983.31;;;8.76;81.00
15884;BME280;8040;50.254;10.960;2022-10-04T03:20:04;98976.00;;;8.67;81.21
15884;BME280;8040;50.254;10.960;2022-10-04T03:22:50;98972.22;;;8.68;82.12
15884;BME280;8040;50.254;10.960;2022-10-04T03:25:54;98961.94;;;8.70;81.25
15884;BME280;8040;50.254;10.960;2022-10-04T03:28:41;98945.72;;;8.75;80.93
15884;BME280;8040;50.254;10.960;2022-10-04T03:31:26;98940.31;;;8.75;80.70
15884;BME280;8040;50.254;10.960;2022-10-04T03:34:17;98932.19;;;8.80;80.77
15884;BME280;8040;50.254;10.960;2022-10-04T03:37:05;98926.25;;;8.83;81.12
15884;BME280;8040;50.254;10.960;2022-10-04T03:39:50;98935.41;;;8.92;80.86
15884;BME280;8040;50.254;10.960;2022-10-04T03:42:35;98932.19;;;9.00;80.39
15884;BME280;8040;50.254;10.960;2022-10-04T03:45:20;98925.16;;;8.99;80.75
15884;BME280;8040;50.254;10.960;2022-10-04T03:48:08;98923.50;;;8.98;81.23
15884;BME280;8040;50.254;10.960;2022-10-04T03:50:52;98940.31;;;9.00;81.12
15884;BME280;8040;50.254;10.960;2022-10-04T03:53:36;98940.84;;;9.02;81.69
15884;BME280;8040;50.254;10.960;2022-10-04T03:56:26;98953.00;;;9.04;81.78
15884;BME280;8040;50.254;10.960;2022-10-04T03:59:10;98951.13;;;9.05;81.74
15884;BME280;8040;50.254;10.960;2022-10-04T04:07:50;98960.31;;;9.04;81.55
15884;BME280;8040;50.254;10.960;2022-10-04T04:10:38;98962.22;;;9.08;81.92
15884;BME280;8040;50.254;10.960;2022-10-04T04:16:21;98943.53;;;9.12;82.19
15884;BME280;8040;50.254;10.960;2022-10-04T04:19:12;98947.59;;;9.14;81.60
15884;BME280;8040;50.254;10.960;2022-10-04T04:21:58;98943.25;;;9.18;81.84
15884;BME280;8040;50.254;10.960;2022-10-04T04:24:42;98945.69;;;9.15;82.47
15884;BME280;8040;50.254;10.960;2022-10-04T04:27:27;98947.28;;;9.21;82.03
15884;BME280;8040;50.254;10.960;2022-10-04T04:30:14;98942.44;;;9.23;82.38
15884;BME280;8040;50.254;10.960;2022-10-04T04:33:01;98951.09;;;9.25;82.09
15884;BME280;8040;50.254;10.960;2022-10-04T04:35:47;98956.25;;;9.21;82.40
15884;BME280;8040;50.254;10.960;2022-10-04T04:38:37;98960.31;;;9.19;82.73
15884;BME280;8040;50.254;10.960;2022-10-04T04:41:43;98941.88;;;9.21;82.35
15884;BME280;8040;50.254;10.960;2022-10-04T04:44:27;98933.22;;;9.24;82.50
15884;BME280;8040;50.254;10.960;2022-10-04T04:50:24;98940.78;;;9.27;82.37
15884;BME280;8040;50.254;10.960;2022-10-04T04:53:11;98944.03;;;9.29;82.82
15884;BME280;8040;50.254;10.960;2022-10-04T04:55:58;98944.59;;;9.31;82.52
15884;BME280;8040;50.254;10.960;2022-10-04T04:58:43;98941.03;;;9.35;82.75
15884;BME280;8040;50.254;10.960;2022-10-04T05:01:36;98934.28;;;9.38;82.83
15884;BME280;8040;50.254;10.960;2022-10-04T05:04:24;98931.00;;;9.41;83.28
15884;BME280;8040;50.254;10.960;2022-10-04T05:07:15;98935.88;;;9.44;83.25
15884;BME280;8040;50.254;10.960;2022-10-04T05:09:59;98942.66;;;9.46;82.52
15884;BME280;8040;50.254;10.960;2022-10-04T05:12:43;98951.03;;;9.45;82.66
15884;BME280;8040;50.254;10.960;2022-10-04T05:15:35;98948.84;;;9.47;82.79
15884;BME280;8040;50.254;10.960;2022-10-04T05:18:29;98956.44;;;9.55;82.92
15884;BME280;8040;50.254;10.960;2022-10-04T05:21:22;98964.28;;;9.56;82.01
15884;BME280;8040;50.254;10.960;2022-10-04T05:24:09;98963.47;;;9.61;82.61
15884;BME280;8040;50.254;10.960;2022-10-04T05:27:01;98962.38;;;9.62;82.00
15884;BME280;8040;50.254;10.960;2022-10-04T05:29:53;98965.84;;;9.67;81.83
15884;BME280;8040;50.254;10.960;2022-10-04T05:35:37;98955.78;;;9.83;81.46
15884;BME280;8040;50.254;10.960;2022-10-04T05:38:36;98953.06;;;9.88;80.78
15884;BME280;8040;50.254;10.960;2022-10-04T05:41:36;98955.75;;;9.93;80.39
15884;BME280;8040;50.254;10.960;2022-10-04T05:47:28;98942.97;;;10.03;79.98
15884;BME280;8040;50.254;10.960;2022-10-04T05:50:18;98939.72;;;10.06;79.93
15884;BME280;8040;50.254;10.960;2022-10-04T06:02:10;98933.47;;;10.11;81.10
15884;BME280;8040;50.254;10.960;2022-10-04T06:27:44;98949.66;;;10.64;78.64
15884;BME280;8040;50.254;10.960;2022-10-04T06:30:38;98958.06;;;10.63;79.10
15884;BME280;8040;50.254;10.960;2022-10-04T07:00:17;98987.03;;;10.29;81.82
15884;BME280;8040;50.254;10.960;2022-10-04T07:03:07;98992.75;;;10.27;80.98
15884;BME280;8040;50.254;10.960;2022-10-04T07:06:01;98983.81;;;10.27;81.41
15884;BME280;8040;50.254;10.960;2022-10-04T07:08:49;98979.97;;;10.33;81.33
15884;BME280;8040;50.254;10.960;2022-10-04T07:11:37;98981.03;;;10.37;81.85
15884;BME280;8040;50.254;10.960;2022-10-04T07:14:33;98967.72;;;10.35;82.57
15884;BME280;8040;50.254;10.960;2022-10-04T07:17:25;98969.06;;;10.43;82.94
15884;BME280;8040;50.254;10.960;2022-10-04T07:20:25;98971.22;;;10.46;82.49
15884;BME280;8040;50.254;10.960;2022-10-04T07:23:14;98976.91;;;10.44;82.47
15884;BME280;8040;50.254;10.960;2022-10-04T07:26:13;99001.59;;;10.43;83.18
15884;BME280;8040;50.254;10.960;2022-10-04T07:29:00;99005.38;;;10.47;82.76
15884;BME280;8040;50.254;10.960;2022-10-04T07:34:57;99013.44;;;10.57;83.19
15884;BME280;8040;50.254;10.960;2022-10-04T07:37:57;99014.25;;;10.62;83.12
15884;BME280;8040;50.254;10.960;2022-10-04T07:49:42;99014.66;;;10.84;83.07
15884;BME280;8040;50.254;10.960;2022-10-04T07:55:25;99006.13;;;10.96;82.21
15884;BME280;8040;50.254;10.960;2022-10-04T07:58:17;98999.00;;;11.05;82.59
15884;BME280;8040;50.254;10.960;2022-10-04T08:15:50;99011.56;;;11.29;81.35
15884;BME280;8040;50.254;10.960;2022-10-04T08:18:41;99010.41;;;11.35;81.26
15884;BME280;8040;50.254;10.960;2022-10-04T08:21:57;99004.63;;;11.42;81.01
15884;BME280;8040;50.254;10.960;2022-10-04T08:24:53;99011.03;;;11.56;81.17
15884;BME280;8040;50.254;10.960;2022-10-04T08:33:58;99012.50;;;11.72;79.69
15884;BME280;8040;50.254;10.960;2022-10-04T09:03:30;99024.84;;;11.88;79.46
15884;BME280;8040;50.254;10.960;2022-10-04T09:12:23;99011.34;;;12.25;78.77
15884;BME280;8040;50.254;10.960;2022-10-04T09:15:16;99011.72;;;12.37;77.98
15884;BME280;8040;50.254;10.960;2022-10-04T09:21:08;99025.38;;;12.55;76.87
15884;BME280;8040;50.254;10.960;2022-10-04T09:38:49;99015.66;;;13.05;75.00
15884;BME280;8040;50.254;10.960;2022-10-04T09:41:49;99013.00;;;13.00;74.24
15884;BME280;8040;50.254;10.960;2022-10-04T09:44:46;99011.22;;;12.90;74.51
15884;BME280;8040;50.254;10.960;2022-10-04T09:47:41;99017.63;;;12.81;74.67
15884;BME280;8040;50.254;10.960;2022-10-04T09:59:08;99016.91;;;13.12;74.95
15884;BME280;8040;50.254;10.960;2022-10-04T10:04:54;99000.34;;;13.41;74.17
15884;BME280;8040;50.254;10.960;2022-10-04T10:07:50;99003.41;;;13.53;73.75
15884;BME280;8040;50.254;10.960;2022-10-04T10:46:49;98992.63;;;13.88;71.15
15884;BME280;8040;50.254;10.960;2022-10-04T10:49:41;98988.72;;;13.81;71.55
15884;BME280;8040;50.254;10.960;2022-10-04T11:00:58;98993.53;;;13.84;71.54
15884;BME280;8040;50.254;10.960;2022-10-04T11:03:54;98979.69;;;13.80;71.52
15884;BME280;8040;50.254;10.960;2022-10-04T11:15:37;98967.28;;;14.01;70.48
15884;BME280;8040;50.254;10.960;2022-10-04T11:18:47;98959.19;;;14.10;70.03
15884;BME280;8040;50.254;10.960;2022-10-04T11:24:33;98969.28;;;14.36;69.80
15884;BME280;8040;50.254;10.960;2022-10-04T11:42:28;98971.59;;;14.78;66.31
15884;BME280;8040;50.254;10.960;2022-10-04T11:45:22;98977.88;;;14.79;66.28
15884;BME280;8040;50.254;10.960;2022-10-04T11:48:22;98975.16;;;14.79;66.25
15884;BME280;8040;50.254;10.960;2022-10-04T11:51:31;98969.16;;;14.77;65.37
15884;BME280;8040;50.254;10.960;2022-10-04T11:54:43;98970.19;;;14.81;65.53
15884;BME280;8040;50.254;10.960;2022-10-04T12:00:51;98968.34;;;14.90;65.18
15884;BME280;8040;50.254;10.960;2022-10-04T12:12:38;98948.75;;;14.74;64.27
15884;BME280;8040;50.254;10.960;2022-10-04T12:33:03;98923.09;;;15.06;62.13
15884;BME280;8040;50.254;10.960;2022-10-04T12:41:40;98920.31;;;15.19;60.46
15884;BME280;8040;50.254;10.960;2022-10-04T12:50:52;98910.56;;;15.27;57.34
15884;BME280;8040;50.254;10.960;2022-10-04T12:53:45;98907.09;;;15.35;57.38
15884;BME280;8040;50.254;10.960;2022-10-04T13:02:29;98905.09;;;15.57;56.35
15884;BME280;8040;50.254;10.960;2022-10-04T13:23:46;98895.19;;;15.87;50.09
15884;BME280;8040;50.254;10.960;2022-10-04T13:32:16;98901.22;;;15.97;50.71
15884;BME280;8040;50.254;10.960;2022-10-04T13:35:09;98905.88;;;16.05;51.71
15884;BME280;8040;50.254;10.960;2022-10-04T13:38:06;98901.88;;;16.11;52.19
15884;BME280;8040;50.254;10.960;2022-10-04T13:52:40;98893.69;;;16.19;51.68
15884;BME280;8040;50.254;10.960;2022-10-04T13:55:52;98895.44;;;16.24;51.42
15884;BME280;8040;50.254;10.960;2022-10-04T14:22:32;98875.63;;;16.35;52.33
15884;BME280;8040;50.254;10.960;2022-10-04T14:54:54;98830.41;;;16.29;54.27
15884;BME280;8040;50.254;10.960;2022-10-04T15:03:36;98823.97;;;16.25;54.41
15884;BME280;8040;50.254;10.960;2022-10-04T15:07:14;98824.94;;;16.29;55.45
15884;BME280;8040;50.254;10.960;2022-10-04T15:09:45;98818.97;;;16.27;55.26
15884;BME280;8040;50.254;10.960;2022-10-04T15:13:07;98816.38;;;16.31;55.84
15884;BME280;8040;50.254;10.960;2022-10-04T15:18:53;98823.00;;;16.38;56.11
15884;BME280;8040;50.254;10.960;2022-10-04T15:21:44;98824.44;;;16.36;55.63
15884;BME280;8040;50.254;10.960;2022-10-04T15:24:30;98826.38;;;16.27;55.13
15884;BME280;8040;50.254;10.960;2022-10-04T15:33:19;98831.69;;;16.15;56.30
15884;BME280;8040;50.254;10.960;2022-10-04T15:36:09;98826.53;;;16.05;56.44
15884;BME280;8040;50.254;10.960;2022-10-04T15:38:57;98826.97;;;15.98;57.13
15884;BME280;8040;50.254;10.960;2022-10-04T15:41:59;98832.94;;;15.92;57.31
15884;BME280;8040;50.254;10.960;2022-10-04T15:59:31;98822.72;;;15.50;59.77
15884;BME280;8040;50.254;10.960;2022-10-04T16:05:23;98831.38;;;15.44;60.32
15884;BME280;8040;50.254;10.960;2022-10-04T16:22:40;98815.38;;;14.98;63.38
15884;BME280;8040;50.254;10.960;2022-10-04T16:28:16;98810.16;;;14.80;65.19
15884;BME280;8040;50.254;10.960;2022-10-04T16:31:15;98808.97;;;14.72;66.51
15884;BME280;8040;50.254;10.960;2022-10-04T16:34:02;98809.25;;;14.62;67.38
15884;BME280;8040;50.254;10.960;2022-10-04T16:39:57;98810.44;;;14.48;68.36
15884;BME280;8040;50.254;10.960;2022-10-04T17:13:59;98816.63;;;13.42;73.01
15884;BME280;8040;50.254;10.960;2022-10-04T17:16:55;98833.81;;;13.42;73.24
15884;BME280;8040;50.254;10.960;2022-10-04T17:19:47;98833.09;;;13.37;73.43
15884;BME280;8040;50.254;10.960;2022-10-04T17:31:38;98845.38;;;13.07;75.01
15884;BME280;8040;50.254;10.960;2022-10-04T17:37:19;98849.69;;;12.95;75.29
15884;BME280;8040;50.254;10.960;2022-10-04T17:42:58;98837.75;;;12.77;75.52
15884;BME280;8040;50.254;10.960;2022-10-04T17:48:43;98837.94;;;12.67;76.19
15884;BME280;8040;50.254;10.960;2022-10-04T17:51:49;98835.28;;;12.62;76.29
15884;BME280;8040;50.254;10.960;2022-10-04T17:54:53;98833.44;;;12.58;76.69
15884;BME280;8040;50.254;10.960;2022-10-04T17:58:10;98832.44;;;12.54;76.67
15884;BME280;8040;50.254;10.960;2022-10-04T18:03:51;98834.53;;;12.43;77.03
15884;BME280;8040;50.254;10.960;2022-10-04T18:06:49;98839.00;;;12.34;76.98
15884;BME280;8040;50.254;10.960;2022-10-04T18:15:22;98845.72;;;12.23;77.82
15884;BME280;8040;50.254;10.960;2022-10-04T18:23:50;98847.28;;;12.11;78.56
15884;BME280;8040;50.254;10.960;2022-10-04T18:26:39;98845.72;;;12.05;79.08
15884;BME280;8040;50.254;10.960;2022-10-04T18:29:37;98850.63;;;12.03;78.99
15884;BME280;8040;50.254;10.960;2022-10-04T18:38:23;98846.16;;;11.93;79.26
15884;BME280;8040;50.254;10.960;2022-10-04T18:46:45;98841.16;;;11.82;79.90
15884;BME280;8040;50.254;10.960;2022-10-04T18:49:43;98820.22;;;11.64;79.81
15884;BME280;8040;50.254;10.960;2022-10-04T18:52:45;98838.28;;;11.73;80.10
15884;BME280;8040;50.254;10.960;2022-10-04T18:55:48;98849.44;;;11.72;80.03
15884;BME280;8040;50.254;10.960;2022-10-04T19:07:50;98857.78;;;11.57;80.88
15884;BME280;8040;50.254;10.960;2022-10-04T19:10:47;98860.81;;;11.50;80.52
15884;BME280;8040;50.254;10.960;2022-10-04T19:16:39;98859.59;;;11.43;80.53
15884;BME280;8040;50.254;10.960;2022-10-04T19:22:22;98873.22;;;11.38;80.62
15884;BME280;8040;50.254;10.960;2022-10-04T19:25:12;98866.69;;;11.39;81.04
15884;BME280;8040;50.254;10.960;2022-10-04T19:28:00;98866.19;;;11.37;81.03
15884;BME280;8040;50.254;10.960;2022-10-04T19:34:09;98880.38;;;11.29;81.20
15884;BME280;8040;50.254;10.960;2022-10-04T19:37:09;98873.09;;;11.24;81.30
15884;BME280;8040;50.254;10.960;2022-10-04T19:42:56;98884.53;;;11.21;81.27
15884;BME280;8040;50.254;10.960;2022-10-04T19:48:46;98900.34;;;11.14;81.15
15884;BME280;8040;50.254;10.960;2022-10-04T19:51:37;98896.31;;;11.12;81.37
15884;BME280;8040;50.254;10.960;2022-10-04T19:54:29;98896.06;;;11.08;81.55
15884;BME280;8040;50.254;10.960;2022-10-04T19:57:17;98901.56;;;11.03;81.66
15884;BME280;8040;50.254;10.960;2022-10-04T20:00:12;98898.06;;;10.98;81.38
15884;BME280;8040;50.254;10.960;2022-10-04T20:02:57;98906.22;;;10.98;81.13
15884;BME280;8040;50.254;10.960;2022-10-04T20:05:45;98908.41;;;10.96;81.10
15884;BME280;8040;50.254;10.960;2022-10-04T20:08:49;98906.25;;;10.93;80.75
15884;BME280;8040;50.254;10.960;2022-10-04T20:17:06;98923.41;;;10.88;81.08
15884;BME280;8040;50.254;10.960;2022-10-04T20:19:50;98917.19;;;10.88;81.28
15884;BME280;8040;50.254;10.960;2022-10-04T20:34:29;98899.91;;;10.74;81.70
15884;BME280;8040;50.254;10.960;2022-10-04T20:37:14;98902.63;;;10.74;81.45
15884;BME280;8040;50.254;10.960;2022-10-04T20:40:05;98907.53;;;10.72;81.60
15884;BME280;8040;50.254;10.960;2022-10-04T20:45:52;98904.31;;;10.70;81.85
15884;BME280;8040;50.254;10.960;2022-10-04T20:48:37;98910.81;;;10.69;81.67
15884;BME280;8040;50.254;10.960;2022-10-04T20:51:25;98912.75;;;10.63;81.78
15884;BME280;8040;50.254;10.960;2022-10-04T20:54:16;98903.56;;;10.59;81.46
15884;BME280;8040;50.254;10.960;2022-10-04T20:57:00;98906.28;;;10.59;81.79
15884;BME280;8040;50.254;10.960;2022-10-04T20:59:44;98914.16;;;10.56;81.82
15884;BME280;8040;50.254;10.960;2022-10-04T21:02:29;98915.53;;;10.53;81.58
15884;BME280;8040;50.254;10.960;2022-10-04T21:05:31;98923.97;;;10.52;81.86
15884;BME280;8040;50.254;10.960;2022-10-04T21:08:20;98923.44;;;10.50;81.31
15884;BME280;8040;50.254;10.960;2022-10-04T21:11:09;98926.16;;;10.50;81.65
15884;BME280;8040;50.254;10.960;2022-10-04T21:13:55;98919.69;;;10.46;81.33
15884;BME280;8040;50.254;10.960;2022-10-04T21:16:47;98918.63;;;10.42;81.30
15884;BME280;8040;50.254;10.960;2022-10-04T21:24:59;98915.94;;;10.37;81.72
15884;BME280;8040;50.254;10.960;2022-10-04T21:27:57;98895.94;;;10.28;81.92
15884;BME280;8040;50.254;10.960;2022-10-04T21:30:57;98925.69;;;10.38;81.35
15884;BME280;8040;50.254;10.960;2022-10-04T21:33:42;98940.06;;;10.38;81.59
15884;BME280;8040;50.254;10.960;2022-10-04T21:36:26;98944.44;;;10.34;81.49
15884;BME280;8040;50.254;10.960;2022-10-04T21:39:10;98943.63;;;10.34;81.38
15884;BME280;8040;50.254;10.960;2022-10-04T21:41:53;98936.59;;;10.33;81.39
15884;BME280;8040;50.254;10.960;2022-10-04T21:44:37;98945.28;;;10.30;81.83
15884;BME280;8040;50.254;10.960;2022-10-04T21:47:21;98943.13;;;10.27;82.06
15884;BME280;8040;50.254;10.960;2022-10-04T21:50:06;98940.44;;;10.27;82.59
15884;BME280;8040;50.254;10.960;2022-10-04T21:52:49;98940.94;;;10.29;82.43
15884;BME280;8040;50.254;10.960;2022-10-04T21:55:33;98937.72;;;10.27;82.24
15884;BME280;8040;50.254;10.960;2022-10-04T21:58:20;98917.69;;;10.18;82.35
15884;BME280;8040;50.254;10.960;2022-10-04T22:01:04;98927.41;;;10.24;81.79
15884;BME280;8040;50.254;10.960;2022-10-04T22:03:48;98920.94;;;10.20;82.15
15884;BME280;8040;50.254;10.960;2022-10-04T22:06:32;98923.94;;;10.18;81.86
15884;BME280;8040;50.254;10.960;2022-10-04T22:09:16;98920.69;;;10.16;81.68
15884;BME280;8040;50.254;10.960;2022-10-04T22:12:00;98916.06;;;10.17;81.35
15884;BME280;8040;50.254;10.960;2022-10-04T22:14:44;98899.00;;;10.16;81.92
15884;BME280;8040;50.254;10.960;2022-10-04T22:17:28;98886.56;;;10.10;81.41
15884;BME280;8040;50.254;10.960;2022-10-04T22:20:12;98883.84;;;10.10;81.83
15884;BME280;8040;50.254;10.960;2022-10-04T22:22:56;98880.88;;;10.07;81.57
15884;BME280;8040;50.254;10.960;2022-10-04T22:25:41;98871.97;;;10.06;81.67
15884;BME280;8040;50.254;10.960;2022-10-04T22:28:26;98874.66;;;10.01;81.29
15884;BME280;8040;50.254;10.960;2022-10-04T22:31:11;98877.66;;;10.00;80.87
15884;BME280;8040;50.254;10.960;2022-10-04T22:33:55;98868.19;;;9.97;81.43
15884;BME280;8040;50.254;10.960;2022-10-04T22:36:46;98871.75;;;9.93;81.02
15884;BME280;8040;50.254;10.960;2022-10-04T22:39:31;98866.88;;;9.90;81.81
15884;BME280;8040;50.254;10.960;2022-10-04T22:45:41;98859.28;;;9.92;82.10
15884;BME280;8040;50.254;10.960;2022-10-04T22:48:25;98851.41;;;9.95;82.38
15884;BME280;8040;50.254;10.960;2022-10-04T22:51:11;98851.41;;;9.95;82.02
15884;BME280;8040;50.254;10.960;2022-10-04T22:53:55;98848.97;;;9.94;82.40
15884;BME280;8040;50.254;10.960;2022-10-04T22:56:39;98839.78;;;9.90;82.49
15884;BME280;8040;50.254;10.960;2022-10-04T22:59:26;98843.81;;;9.92;83.14
15884;BME280;8040;50.254;10.960;2022-10-04T23:02:17;98844.63;;;9.93;82.19
15884;BME280;8040;50.254;10.960;2022-10-04T23:07:52;98841.41;;;9.91;82.20
15884;BME280;8040;50.254;10.960;2022-10-04T23:10:36;98841.69;;;9.89;82.38
15884;BME280;8040;50.254;10.960;2022-10-04T23:13:20;98847.91;;;9.90;82.55
15884;BME280;8040;50.254;10.960;2022-10-04T23:16:18;98838.69;;;9.91;82.28
15884;BME280;8040;50.254;10.960;2022-10-04T23:19:10;98839.25;;;9.88;82.16
15884;BME280;8040;50.254;10.960;2022-10-04T23:21:54;98838.72;;;9.86;81.82
15884;BME280;8040;50.254;10.960;2022-10-04T23:24:38;98834.09;;;9.86;82.67
15884;BME280;8040;50.254;10.960;2022-10-04T23:27:22;98832.47;;;9.85;83.08
15884;BME280;8040;50.254;10.960;2022-10-04T23:30:11;98818.94;;;9.85;82.53
15884;BME280;8040;50.254;10.960;2022-10-04T23:32:56;98821.94;;;9.84;82.79
15884;BME280;8040;50.254;10.960;2022-10-04T23:35:40;98825.72;;;9.83;82.54
15884;BME280;8040;50.254;10.960;2022-10-04T23:38:24;98830.34;;;9.82;83.04
15884;BME280;8040;50.254;10.960;2022-10-04T23:41:09;98833.91;;;9.78;82.72
15884;BME280;8040;50.254;10.960;2022-10-04T23:43:53;98827.91;;;9.81;83.07
15884;BME280;8040;50.254;10.960;2022-10-04T23:46:37;98829.00;;;9.80;82.51
15884;BME280;8040;50.254;10.960;2022-10-04T23:49:22;98825.47;;;9.79;82.96
15884;BME280;8040;50.254;10.960;2022-10-04T23:52:07;98814.94;;;9.78;83.29
15884;BME280;8040;50.254;10.960;2022-10-04T23:54:52;98817.09;;;9.76;82.80
15884;BME280;8040;50.254;10.960;2022-10-04T23:57:36;98818.47;;;9.73;83.08
